Terminal Aerodrome Forecast
Issued by NWS

Home | Current Version | Previous Version | Text Only | Print | Product List | Glossary Off
Versions: 1 2 3 4 5 6 7 8 9 10 11 12 13 14 15 16 17 18

959
FTUS43 KABR 291720
TAFPIR
TAF
KPIR 291720Z 2918/3018 32020G28KT P6SM SCT040
     FM300200 32006KT P6SM FEW200
     FM301400 31010KT P6SM FEW250=

USA.gov is the U.S. government's official web portal to all federal, state and local government web resources and services.